JBU4785 KLAX-MDPC
Flight info
| Callsign | JBU4785 |
|---|---|
| Flight time | N/A |
| Altitude | 29000 |
| Route | LAXX1 TRM J169 BLH J50 SALOM J65 KOFFA J169 TFD J50 SSO/N0452F310 J50 ALIBY J2 ELP J86 FIGMO J2 FST J86 KEMPL J2 JCT J86 CUZZZ/N0447F330 J86 LEV Q102 FEMID Y290 HAGIT Y306 POKEG POKEG2B |
| Aircraft | A321/M-SDE3FGHIRWY/LB1 |
Departure
| Time | 2026-05-03 20:16 |
|---|---|
| Airport | Los Angeles International Airport (KLAX) |
Arrival
| Time | N/A |
|---|---|
| Airport | Punta Cana International Airport (MDPC) |
| Time | Latitude | Longitude | Altitude | Speed | Heading |
|---|---|---|---|---|---|
| 2026-05-03 20:15 | 33.93881 | -118.39025 | 96 ft | 113 kts | 263° |
| 2026-05-03 20:15 | 33.93767 | -118.40144 | 102 ft | 154 kts | 263° |
| 2026-05-03 20:15 | 33.93621 | -118.41556 | 164 ft | 181 kts | 262° |
| 2026-05-03 20:15 | 33.93503 | -118.43066 | 677 ft | 182 kts | 264° |
| 2026-05-03 20:16 | 33.93300 | -118.44610 | 1092 ft | 194 kts | 243° |
| 2026-05-03 20:16 | 33.92416 | -118.45889 | 1449 ft | 206 kts | 228° |
| 2026-05-03 20:16 | 33.91441 | -118.47221 | 1796 ft | 218 kts | 230° |
| 2026-05-03 20:16 | 33.90458 | -118.48681 | 2109 ft | 232 kts | 232° |
| 2026-05-03 20:17 | 33.89431 | -118.50257 | 2434 ft | 246 kts | 232° |
| 2026-05-03 20:17 | 33.88371 | -118.51902 | 2735 ft | 251 kts | 231° |
| 2026-05-03 20:17 | 33.87303 | -118.53567 | 3039 ft | 252 kts | 231° |
| 2026-05-03 20:17 | 33.86016 | -118.54987 | 3342 ft | 254 kts | 206° |
| 2026-05-03 20:18 | 33.84336 | -118.55671 | 3643 ft | 256 kts | 193° |
| 2026-05-03 20:18 | 33.82606 | -118.56140 | 4133 ft | 255 kts | 191° |
| 2026-05-03 20:18 | 33.80886 | -118.56595 | 4639 ft | 258 kts | 192° |
| 2026-05-03 20:18 | 33.79125 | -118.57070 | 5144 ft | 260 kts | 192° |
| 2026-05-03 20:19 | 33.77350 | -118.57496 | 5643 ft | 260 kts | 183° |
| 2026-05-03 20:19 | 33.75585 | -118.57153 | 6153 ft | 260 kts | 155° |
| 2026-05-03 20:19 | 33.74166 | -118.55816 | 6658 ft | 265 kts | 129° |
| 2026-05-03 20:19 | 33.73175 | -118.53915 | 7140 ft | 271 kts | 122° |
| 2026-05-03 20:20 | 33.72275 | -118.51914 | 7631 ft | 274 kts | 121° |
| 2026-05-03 20:20 | 33.71383 | -118.49880 | 8128 ft | 277 kts | 121° |
| 2026-05-03 20:20 | 33.70486 | -118.47821 | 8630 ft | 280 kts | 121° |
| 2026-05-03 20:20 | 33.69580 | -118.45731 | 9141 ft | 284 kts | 121° |
| 2026-05-03 20:21 | 33.68664 | -118.43616 | 9660 ft | 287 kts | 121° |
| 2026-05-03 20:21 | 33.67745 | -118.41484 | 10160 ft | 288 kts | 121° |
| 2026-05-03 20:21 | 33.66824 | -118.39340 | 10635 ft | 290 kts | 121° |
| 2026-05-03 20:21 | 33.65905 | -118.37184 | 11114 ft | 291 kts | 121° |
| 2026-05-03 20:22 | 33.64990 | -118.35018 | 11592 ft | 291 kts | 121° |
| 2026-05-03 20:22 | 33.64181 | -118.32781 | 12086 ft | 296 kts | 108° |
| 2026-05-03 20:22 | 33.64047 | -118.30310 | 12584 ft | 302 kts | 83° |
| 2026-05-03 20:22 | 33.64770 | -118.27925 | 12991 ft | 309 kts | 58° |
| 2026-05-03 20:23 | 33.66031 | -118.25799 | 13328 ft | 316 kts | 55° |
| 2026-05-03 20:23 | 33.67347 | -118.23642 | 13646 ft | 323 kts | 55° |
| 2026-05-03 20:23 | 33.68692 | -118.21439 | 13954 ft | 330 kts | 55° |
| 2026-05-03 20:23 | 33.70044 | -118.19218 | 14226 ft | 338 kts | 55° |
| 2026-05-03 20:24 | 33.71459 | -118.16880 | 14505 ft | 345 kts | 55° |
| 2026-05-03 20:24 | 33.72881 | -118.14522 | 14790 ft | 352 kts | 55° |
| 2026-05-03 20:24 | 33.74328 | -118.12121 | 15095 ft | 358 kts | 54° |
| 2026-05-03 20:24 | 33.75731 | -118.09675 | 15354 ft | 363 kts | 61° |
| 2026-05-03 20:25 | 33.76847 | -118.06936 | 15655 ft | 367 kts | 71° |
| 2026-05-03 20:25 | 33.77574 | -118.03948 | 15944 ft | 369 kts | 83° |
| 2026-05-03 20:25 | 33.77873 | -118.00882 | 16260 ft | 371 kts | 93° |
| 2026-05-03 20:25 | 33.77762 | -117.97826 | 16547 ft | 372 kts | 100° |
| 2026-05-03 20:26 | 33.77521 | -117.94710 | 16853 ft | 377 kts | 100° |
| 2026-05-03 20:26 | 33.77279 | -117.91544 | 17195 ft | 382 kts | 99° |
| 2026-05-03 20:26 | 33.77037 | -117.88338 | 17508 ft | 387 kts | 99° |
| 2026-05-03 20:26 | 33.76793 | -117.85100 | 17824 ft | 392 kts | 99° |
| 2026-05-03 20:27 | 33.76547 | -117.81815 | 18145 ft | 396 kts | 99° |
| 2026-05-03 20:27 | 33.76300 | -117.78502 | 18449 ft | 400 kts | 99° |
| 2026-05-03 20:27 | 33.76049 | -117.75150 | 18725 ft | 405 kts | 100° |
| 2026-05-03 20:27 | 33.75791 | -117.71766 | 18998 ft | 409 kts | 100° |
| 2026-05-03 20:28 | 33.75526 | -117.68353 | 19283 ft | 412 kts | 100° |
| 2026-05-03 20:28 | 33.75255 | -117.64904 | 19566 ft | 417 kts | 100° |
| 2026-05-03 20:28 | 33.74979 | -117.61420 | 19848 ft | 421 kts | 100° |
| 2026-05-03 20:28 | 33.74699 | -117.57902 | 20129 ft | 425 kts | 100° |
| 2026-05-03 20:29 | 33.74420 | -117.54349 | 20417 ft | 429 kts | 100° |
| 2026-05-03 20:29 | 33.74144 | -117.50771 | 20685 ft | 432 kts | 100° |
| 2026-05-03 20:29 | 33.73865 | -117.47166 | 20950 ft | 434 kts | 100° |
| 2026-05-03 20:29 | 33.73582 | -117.43544 | 21245 ft | 437 kts | 100° |
| 2026-05-03 20:30 | 33.73295 | -117.39896 | 21546 ft | 440 kts | 101° |
| 2026-05-03 20:30 | 33.73001 | -117.36233 | 21852 ft | 443 kts | 101° |
| 2026-05-03 20:30 | 33.72704 | -117.32533 | 22139 ft | 445 kts | 101° |
| 2026-05-03 20:30 | 33.72406 | -117.28819 | 22449 ft | 448 kts | 101° |
| 2026-05-03 20:31 | 33.72106 | -117.25089 | 22767 ft | 450 kts | 101° |
| 2026-05-03 20:31 | 33.71803 | -117.21343 | 23065 ft | 451 kts | 101° |
| 2026-05-03 20:31 | 33.71500 | -117.17586 | 23435 ft | 453 kts | 101° |
| 2026-05-03 20:31 | 33.71193 | -117.13815 | 23733 ft | 454 kts | 101° |
| 2026-05-03 20:32 | 33.70882 | -117.10034 | 24003 ft | 455 kts | 101° |
| 2026-05-03 20:32 | 33.70571 | -117.06251 | 24273 ft | 456 kts | 101° |
| 2026-05-03 20:32 | 33.70260 | -117.02455 | 24558 ft | 457 kts | 101° |
| 2026-05-03 20:32 | 33.69947 | -116.98661 | 24821 ft | 457 kts | 101° |
| 2026-05-03 20:33 | 33.69635 | -116.94911 | 25083 ft | 458 kts | 101° |
| 2026-05-03 20:33 | 33.69318 | -116.91104 | 25372 ft | 458 kts | 101° |
| 2026-05-03 20:33 | 33.69000 | -116.87296 | 25647 ft | 458 kts | 101° |
| 2026-05-03 20:33 | 33.68683 | -116.83490 | 25918 ft | 458 kts | 101° |
| 2026-05-03 20:34 | 33.68361 | -116.79684 | 26196 ft | 458 kts | 101° |
| 2026-05-03 20:34 | 33.68037 | -116.75887 | 26454 ft | 457 kts | 101° |
| 2026-05-03 20:34 | 33.67711 | -116.72086 | 26709 ft | 458 kts | 101° |
| 2026-05-03 20:34 | 33.67384 | -116.68284 | 26989 ft | 457 kts | 101° |
| 2026-05-03 20:35 | 33.67061 | -116.64493 | 27268 ft | 456 kts | 101° |
| 2026-05-03 20:35 | 33.66735 | -116.60701 | 27430 ft | 458 kts | 101° |
| 2026-05-03 20:35 | 33.66406 | -116.56891 | 27591 ft | 460 kts | 102° |
| 2026-05-03 20:35 | 33.66075 | -116.53068 | 27583 ft | 462 kts | 103° |
| 2026-05-03 20:36 | 33.65743 | -116.49268 | 27700 ft | 463 kts | 101° |
| 2026-05-03 20:36 | 33.65409 | -116.45424 | 27955 ft | 463 kts | 101° |
| 2026-05-03 20:36 | 33.65077 | -116.41582 | 28154 ft | 463 kts | 101° |
| 2026-05-03 20:36 | 33.64738 | -116.37677 | 28291 ft | 465 kts | 101° |
| 2026-05-03 20:37 | 33.64399 | -116.33810 | 28466 ft | 467 kts | 101° |
| 2026-05-03 20:37 | 33.64059 | -116.29978 | 28569 ft | 469 kts | 101° |
| 2026-05-03 20:37 | 33.63713 | -116.26086 | 28708 ft | 470 kts | 101° |
| 2026-05-03 20:37 | 33.63363 | -116.22189 | 28874 ft | 469 kts | 101° |
| 2026-05-03 20:38 | 33.63012 | -116.18295 | 29071 ft | 470 kts | 101° |
| 2026-05-03 20:38 | 33.62696 | -116.14384 | 29238 ft | 473 kts | 98° |
| 2026-05-03 20:38 | 33.62512 | -116.10434 | 29409 ft | 475 kts | 96° |
| 2026-05-03 20:38 | 33.62440 | -116.06457 | 29541 ft | 479 kts | 94° |
| 2026-05-03 20:39 | 33.62429 | -116.02433 | 29595 ft | 484 kts | 93° |
| 2026-05-03 20:39 | 33.62437 | -115.98388 | 29753 ft | 485 kts | 93° |
| 2026-05-03 20:39 | 33.62426 | -115.94327 | 29788 ft | 489 kts | 94° |
| 2026-05-03 20:40 | 33.62303 | -115.86110 | 29809 ft | 498 kts | 95° |
| 2026-05-03 20:40 | 33.62094 | -115.77715 | 29816 ft | 508 kts | 95° |
| 2026-05-03 20:41 | 33.61893 | -115.69145 | 29819 ft | 519 kts | 95° |
| 2026-05-03 20:41 | 33.61713 | -115.60408 | 29823 ft | 529 kts | 95° |
| 2026-05-03 20:42 | 33.61532 | -115.51490 | 29819 ft | 539 kts | 95° |
| 2026-05-03 20:42 | 33.61325 | -115.42408 | 29820 ft | 550 kts | 95° |
| 2026-05-03 20:43 | 33.61110 | -115.33239 | 29815 ft | 556 kts | 95° |
| 2026-05-03 20:43 | 33.60889 | -115.23954 | 29811 ft | 556 kts | 94° |
| 2026-05-03 20:44 | 33.60653 | -115.14676 | 29812 ft | 556 kts | 95° |
| 2026-05-03 20:44 | 33.60411 | -115.05387 | 29817 ft | 557 kts | 95° |
| 2026-05-03 20:45 | 33.60167 | -114.96106 | 29840 ft | 556 kts | 94° |
| 2026-05-03 20:45 | 33.59914 | -114.86815 | 29842 ft | 556 kts | 95° |
| 2026-05-03 20:46 | 33.59691 | -114.79106 | 29836 ft | 556 kts | 95° |
| 2026-05-03 20:46 | 33.59252 | -114.69848 | 29841 ft | 555 kts | 98° |
| 2026-05-03 20:47 | 33.58392 | -114.60664 | 29854 ft | 554 kts | 101° |
| 2026-05-03 20:47 | 33.57404 | -114.51512 | 29833 ft | 554 kts | 100° |
| 2026-05-03 20:48 | 33.56520 | -114.42332 | 29832 ft | 554 kts | 99° |
| 2026-05-03 20:48 | 33.55720 | -114.33139 | 29820 ft | 554 kts | 99° |
| 2026-05-03 20:49 | 33.54912 | -114.23954 | 29816 ft | 554 kts | 99° |
| 2026-05-03 20:49 | 33.54070 | -114.14768 | 29821 ft | 554 kts | 99° |
| 2026-05-03 20:50 | 33.53212 | -114.05652 | 29806 ft | 554 kts | 99° |
| 2026-05-03 20:50 | 33.52340 | -113.96467 | 29883 ft | 554 kts | 99° |
| 2026-05-03 20:51 | 33.51464 | -113.87291 | 29982 ft | 554 kts | 99° |
| 2026-05-03 20:51 | 33.51027 | -113.82711 | 30129 ft | 552 kts | 99° |
| 2026-05-03 20:51 | 33.50591 | -113.78146 | 30403 ft | 551 kts | 99° |
| 2026-05-03 20:51 | 33.50155 | -113.73598 | 30674 ft | 549 kts | 99° |
| 2026-05-03 20:52 | 33.49718 | -113.69066 | 30942 ft | 547 kts | 99° |
| 2026-05-03 20:52 | 33.49279 | -113.64547 | 31202 ft | 545 kts | 100° |
| 2026-05-03 20:52 | 33.48838 | -113.60041 | 31452 ft | 544 kts | 100° |
| 2026-05-03 20:52 | 33.48398 | -113.55551 | 31681 ft | 542 kts | 99° |
| 2026-05-03 20:53 | 33.47960 | -113.51074 | 31904 ft | 540 kts | 100° |
| 2026-05-03 20:53 | 33.47520 | -113.46610 | 32128 ft | 539 kts | 100° |
| 2026-05-03 20:53 | 33.47079 | -113.42163 | 32081 ft | 537 kts | 100° |
| 2026-05-03 20:53 | 33.46567 | -113.37749 | 32335 ft | 531 kts | 106° |
| 2026-05-03 20:54 | 33.45630 | -113.33508 | 32566 ft | 522 kts | 115° |
| 2026-05-03 20:54 | 33.42736 | -113.25694 | 33076 ft | 509 kts | 122° |
| 2026-05-03 20:54 | 33.41222 | -113.21867 | 33336 ft | 506 kts | 122° |
| 2026-05-03 20:55 | 33.39723 | -113.18070 | 33580 ft | 504 kts | 122° |
| 2026-05-03 20:55 | 33.38226 | -113.14275 | 33713 ft | 503 kts | 122° |
| 2026-05-03 20:55 | 33.36734 | -113.10491 | 33816 ft | 504 kts | 122° |
| 2026-05-03 20:55 | 33.35233 | -113.06690 | 33842 ft | 507 kts | 122° |
| 2026-05-03 20:56 | 33.32213 | -112.99064 | 33855 ft | 513 kts | 122° |
| 2026-05-03 20:56 | 33.29132 | -112.91323 | 33853 ft | 518 kts | 122° |
| 2026-05-03 20:57 | 33.26016 | -112.83506 | 33874 ft | 524 kts | 122° |
| 2026-05-03 20:57 | 33.22862 | -112.75597 | 33868 ft | 530 kts | 122° |
| 2026-05-03 20:58 | 33.19664 | -112.67597 | 33860 ft | 537 kts | 122° |
| 2026-05-03 20:58 | 33.16424 | -112.59519 | 33939 ft | 540 kts | 122° |
| 2026-05-03 20:59 | 33.14804 | -112.55481 | 34063 ft | 539 kts | 122° |
| 2026-05-03 20:59 | 33.13187 | -112.51455 | 34174 ft | 538 kts | 122° |
| 2026-05-03 20:59 | 33.11570 | -112.47434 | 34310 ft | 537 kts | 122° |
| 2026-05-03 20:59 | 33.09957 | -112.43428 | 34434 ft | 535 kts | 122° |
| 2026-05-03 21:00 | 33.08340 | -112.39430 | 34569 ft | 534 kts | 122° |
| 2026-05-03 21:00 | 33.07269 | -112.36787 | 34659 ft | 534 kts | 122° |
| 2026-05-03 21:00 | 33.05112 | -112.31464 | 34862 ft | 532 kts | 122° |
| 2026-05-03 21:00 | 33.03504 | -112.27498 | 35005 ft | 531 kts | 122° |
| 2026-05-03 21:01 | 33.01901 | -112.23539 | 35148 ft | 530 kts | 122° |
| 2026-05-03 21:01 | 33.00320 | -112.19637 | 35288 ft | 529 kts | 122° |
| 2026-05-03 21:01 | 32.98719 | -112.15691 | 35452 ft | 528 kts | 122° |
| 2026-05-03 21:01 | 32.97122 | -112.11760 | 35612 ft | 526 kts | 122° |
| 2026-05-03 21:02 | 32.93940 | -112.03946 | 35853 ft | 523 kts | 122° |
| 2026-05-03 21:02 | 32.90751 | -111.96151 | 35891 ft | 525 kts | 122° |
| 2026-05-03 21:03 | 32.87938 | -111.88053 | 35901 ft | 538 kts | 109° |
| 2026-05-03 21:03 | 32.86030 | -111.79407 | 35920 ft | 543 kts | 109° |
| 2026-05-03 21:04 | 32.84103 | -111.70685 | 35906 ft | 547 kts | 109° |
| 2026-05-03 21:04 | 32.82144 | -111.61912 | 35890 ft | 551 kts | 109° |
| 2026-05-03 21:05 | 32.80166 | -111.53093 | 35884 ft | 552 kts | 109° |
| 2026-05-03 21:05 | 32.78186 | -111.44253 | 35890 ft | 554 kts | 109° |
| 2026-05-03 21:06 | 32.76201 | -111.35452 | 35910 ft | 555 kts | 109° |
| 2026-05-03 21:06 | 32.74190 | -111.26584 | 35928 ft | 556 kts | 109° |
| 2026-05-03 21:07 | 32.72167 | -111.17720 | 35924 ft | 556 kts | 109° |
| 2026-05-03 21:07 | 32.70148 | -111.08854 | 35940 ft | 557 kts | 109° |
| 2026-05-03 21:08 | 32.68122 | -110.99980 | 35938 ft | 557 kts | 109° |
| 2026-05-03 21:08 | 32.66091 | -110.91114 | 35886 ft | 557 kts | 110° |
| 2026-05-03 21:09 | 32.64048 | -110.82237 | 35919 ft | 558 kts | 110° |
| 2026-05-03 21:09 | 32.61988 | -110.73353 | 35942 ft | 559 kts | 110° |
| 2026-05-03 21:10 | 32.59921 | -110.64469 | 35949 ft | 559 kts | 110° |
| 2026-05-03 21:10 | 32.57855 | -110.55580 | 35970 ft | 559 kts | 110° |
| 2026-05-03 21:11 | 32.55787 | -110.46701 | 35982 ft | 559 kts | 110° |
| 2026-05-03 21:11 | 32.53699 | -110.37819 | 35978 ft | 559 kts | 110° |
| 2026-05-03 21:12 | 32.51626 | -110.29011 | 35951 ft | 558 kts | 110° |
| 2026-05-03 21:12 | 32.49532 | -110.20151 | 35969 ft | 557 kts | 110° |
| 2026-05-03 21:13 | 32.47437 | -110.11308 | 35980 ft | 558 kts | 110° |
| 2026-05-03 21:13 | 32.45335 | -110.02478 | 35956 ft | 557 kts | 110° |
| 2026-05-03 21:14 | 32.43225 | -109.93646 | 35956 ft | 557 kts | 110° |
| 2026-05-03 21:14 | 32.41109 | -109.84800 | 35948 ft | 558 kts | 110° |
| 2026-05-03 21:15 | 32.38993 | -109.75977 | 35938 ft | 557 kts | 110° |
| 2026-05-03 21:15 | 32.36866 | -109.67154 | 35916 ft | 557 kts | 110° |
| 2026-05-03 21:16 | 32.34732 | -109.58356 | 35934 ft | 556 kts | 110° |
| 2026-05-03 21:16 | 32.32614 | -109.49625 | 35940 ft | 556 kts | 110° |
| 2026-05-03 21:17 | 32.30826 | -109.42270 | 35939 ft | 556 kts | 110° |
| 2026-05-03 21:17 | 32.28337 | -109.32074 | 35943 ft | 555 kts | 110° |
| 2026-05-03 21:18 | 32.26196 | -109.23304 | 35949 ft | 555 kts | 109° |
| 2026-05-03 21:18 | 32.24171 | -109.14494 | 35950 ft | 556 kts | 108° |
| 2026-05-03 21:19 | 32.22202 | -109.05664 | 35957 ft | 556 kts | 108° |
| 2026-05-03 21:19 | 32.20195 | -108.96850 | 35953 ft | 555 kts | 108° |
| 2026-05-03 21:20 | 32.18150 | -108.88043 | 35965 ft | 556 kts | 108° |
| 2026-05-03 21:20 | 32.16106 | -108.79246 | 35979 ft | 556 kts | 108° |
| 2026-05-03 21:21 | 32.15082 | -108.74846 | 36080 ft | 556 kts | 108° |
| 2026-05-03 21:21 | 32.14060 | -108.70445 | 36081 ft | 556 kts | 108° |
| 2026-05-03 21:21 | 32.12028 | -108.61712 | 36064 ft | 556 kts | 108° |
| 2026-05-03 21:22 | 32.09965 | -108.52920 | 36043 ft | 556 kts | 108° |
| 2026-05-03 21:22 | 32.07898 | -108.44132 | 36009 ft | 556 kts | 108° |
| 2026-05-03 21:23 | 32.05830 | -108.35334 | 36006 ft | 556 kts | 108° |
| 2026-05-03 21:23 | 32.03754 | -108.26550 | 36004 ft | 556 kts | 108° |
| 2026-05-03 21:24 | 32.01667 | -108.17749 | 36003 ft | 557 kts | 108° |
| 2026-05-03 21:24 | 31.99599 | -108.09029 | 36007 ft | 557 kts | 108° |
| 2026-05-03 21:25 | 31.97503 | -108.00248 | 36011 ft | 556 kts | 109° |
| 2026-05-03 21:25 | 31.95399 | -107.91472 | 36011 ft | 556 kts | 109° |
| 2026-05-03 21:26 | 31.93287 | -107.82711 | 36012 ft | 556 kts | 109° |
| 2026-05-03 21:26 | 31.91853 | -107.73747 | 36026 ft | 559 kts | 94° |
| 2026-05-03 21:27 | 31.91281 | -107.64609 | 36014 ft | 560 kts | 95° |
| 2026-05-03 21:27 | 31.90674 | -107.55480 | 35987 ft | 560 kts | 95° |
| 2026-05-03 21:28 | 31.90058 | -107.46342 | 36002 ft | 560 kts | 95° |
| 2026-05-03 21:28 | 31.89446 | -107.37266 | 36018 ft | 560 kts | 95° |
| 2026-05-03 21:29 | 31.88823 | -107.28133 | 36016 ft | 560 kts | 95° |
| 2026-05-03 21:29 | 31.88193 | -107.18994 | 36015 ft | 560 kts | 95° |
| 2026-05-03 21:30 | 31.87559 | -107.09863 | 36011 ft | 560 kts | 95° |
| 2026-05-03 21:30 | 31.86923 | -107.00729 | 36016 ft | 560 kts | 95° |
| 2026-05-03 21:31 | 31.86276 | -106.91591 | 36012 ft | 560 kts | 95° |
| 2026-05-03 21:31 | 31.85948 | -106.87028 | 36132 ft | 560 kts | 95° |
| 2026-05-03 21:31 | 31.85618 | -106.82463 | 36155 ft | 560 kts | 95° |
| 2026-05-03 21:32 | 31.84954 | -106.73334 | 36163 ft | 560 kts | 95° |
| 2026-05-03 21:32 | 31.84284 | -106.64191 | 36166 ft | 561 kts | 95° |
| 2026-05-03 21:33 | 31.83728 | -106.56597 | 36144 ft | 561 kts | 95° |
| 2026-05-03 21:33 | 31.83050 | -106.47449 | 36159 ft | 561 kts | 95° |
| 2026-05-03 21:34 | 31.82359 | -106.38312 | 36149 ft | 561 kts | 95° |
| 2026-05-03 21:34 | 31.81602 | -106.29188 | 36131 ft | 561 kts | 100° |
| 2026-05-03 21:35 | 31.79665 | -106.20339 | 36113 ft | 559 kts | 108° |
| 2026-05-03 21:35 | 31.77479 | -106.11557 | 36073 ft | 559 kts | 108° |
| 2026-05-03 21:36 | 31.75302 | -106.02786 | 36043 ft | 559 kts | 108° |
| 2026-05-03 21:36 | 31.73123 | -105.94012 | 36023 ft | 559 kts | 108° |
| 2026-05-03 21:37 | 31.70938 | -105.85240 | 36018 ft | 559 kts | 108° |
| 2026-05-03 21:37 | 31.68761 | -105.76544 | 36026 ft | 559 kts | 108° |
| 2026-05-03 21:38 | 31.66561 | -105.67792 | 36025 ft | 559 kts | 108° |
| 2026-05-03 21:38 | 31.64363 | -105.59047 | 36002 ft | 559 kts | 108° |
| 2026-05-03 21:39 | 31.62158 | -105.50302 | 36008 ft | 559 kts | 108° |
| 2026-05-03 21:39 | 31.59936 | -105.41563 | 36019 ft | 559 kts | 108° |
| 2026-05-03 21:40 | 31.57703 | -105.32815 | 36022 ft | 559 kts | 108° |
| 2026-05-03 21:40 | 31.55475 | -105.24071 | 36031 ft | 560 kts | 108° |
| 2026-05-03 21:41 | 31.53247 | -105.15324 | 36025 ft | 560 kts | 108° |
| 2026-05-03 21:41 | 31.51006 | -105.06585 | 36032 ft | 560 kts | 108° |
| 2026-05-03 21:42 | 31.48746 | -104.97848 | 36031 ft | 560 kts | 108° |
| 2026-05-03 21:42 | 31.46500 | -104.89170 | 36004 ft | 560 kts | 108° |
| 2026-05-03 21:43 | 31.44235 | -104.80440 | 36025 ft | 560 kts | 108° |
| 2026-05-03 21:43 | 31.41967 | -104.71722 | 36033 ft | 560 kts | 108° |
| 2026-05-03 21:44 | 31.39693 | -104.62991 | 36036 ft | 560 kts | 108° |
| 2026-05-03 21:44 | 31.37417 | -104.54274 | 36037 ft | 560 kts | 108° |
| 2026-05-03 21:45 | 31.35132 | -104.45560 | 36041 ft | 560 kts | 108° |
| 2026-05-03 21:45 | 31.32831 | -104.36863 | 36037 ft | 560 kts | 108° |
| 2026-05-03 21:46 | 31.30548 | -104.28217 | 36039 ft | 560 kts | 108° |